Terminal Aerodrome Forecast
Issued by NWS

Home | Current Version | Previous Version | Text Only | Print | Product List | Glossary On
Versions: 1 2 3 4 5 6 7 8 9 10 11 12
000
FTUS45 KRIW 131100
TAFJAC
TAF
KJAC 131123Z 1312/1412 VRB04KT P6SM SKC
     FM132000 30007KT P6SM VCSH SCT090
     FM140200 35008KT P6SM SKC
      AMD LTD TO CLD VIS AND WIND=

USA.gov is the U.S. government's official web portal to all federal, state and local government web resources and services.